sensor_id;sensor_type;location;lat;lon;timestamp;P1;durP1;ratioP1;P2;durP2;ratioP2
15899;SDS011;8048;50.644;6.184;2022-08-05T00:01:10;4.50;;;4.10;;
15899;SDS011;8048;50.644;6.184;2022-08-05T00:03:37;4.63;;;4.23;;
15899;SDS011;8048;50.644;6.184;2022-08-05T00:06:03;4.37;;;4.07;;
15899;SDS011;8048;50.644;6.184;2022-08-05T00:08:28;4.60;;;4.20;;
15899;SDS011;8048;50.644;6.184;2022-08-05T00:10:54;4.83;;;4.20;;
15899;SDS011;8048;50.644;6.184;2022-08-05T00:13:23;4.40;;;4.00;;
15899;SDS011;8048;50.644;6.184;2022-08-05T00:15:49;8.50;;;5.30;;
15899;SDS011;8048;50.644;6.184;2022-08-05T00:18:14;6.77;;;4.17;;
15899;SDS011;8048;50.644;6.184;2022-08-05T00:20:40;5.83;;;5.43;;
15899;SDS011;8048;50.644;6.184;2022-08-05T00:23:05;3.93;;;3.63;;
15899;SDS011;8048;50.644;6.184;2022-08-05T00:25:31;4.10;;;3.87;;
15899;SDS011;8048;50.644;6.184;2022-08-05T00:27:57;5.33;;;4.93;;
15899;SDS011;8048;50.644;6.184;2022-08-05T00:30:23;4.60;;;4.20;;
15899;SDS011;8048;50.644;6.184;2022-08-05T00:32:49;4.40;;;4.00;;
15899;SDS011;8048;50.644;6.184;2022-08-05T00:35:15;5.33;;;4.87;;
15899;SDS011;8048;50.644;6.184;2022-08-05T00:37:41;4.00;;;3.70;;
15899;SDS011;8048;50.644;6.184;2022-08-05T00:40:06;4.03;;;3.63;;
15899;SDS011;8048;50.644;6.184;2022-08-05T00:42:36;4.10;;;3.83;;
15899;SDS011;8048;50.644;6.184;2022-08-05T00:45:05;5.27;;;4.87;;
15899;SDS011;8048;50.644;6.184;2022-08-05T00:47:32;4.13;;;3.83;;
15899;SDS011;8048;50.644;6.184;2022-08-05T00:49:57;4.30;;;4.00;;
15899;SDS011;8048;50.644;6.184;2022-08-05T00:52:23;4.60;;;3.97;;
15899;SDS011;8048;50.644;6.184;2022-08-05T00:54:49;4.13;;;3.83;;
15899;SDS011;8048;50.644;6.184;2022-08-05T00:57:14;5.63;;;5.20;;
15899;SDS011;8048;50.644;6.184;2022-08-05T00:59:40;4.23;;;3.77;;
15899;SDS011;8048;50.644;6.184;2022-08-05T01:02:06;4.40;;;4.10;;
15899;SDS011;8048;50.644;6.184;2022-08-05T01:04:31;5.37;;;4.97;;
15899;SDS011;8048;50.644;6.184;2022-08-05T01:06:57;3.60;;;3.40;;
15899;SDS011;8048;50.644;6.184;2022-08-05T01:09:23;3.73;;;3.50;;
15899;SDS011;8048;50.644;6.184;2022-08-05T01:11:49;4.40;;;4.00;;
15899;SDS011;8048;50.644;6.184;2022-08-05T01:14:19;3.97;;;3.67;;
15899;SDS011;8048;50.644;6.184;2022-08-05T01:28:32;4.97;;;4.30;;
15899;SDS011;8048;50.644;6.184;2022-08-05T01:31:09;4.57;;;4.17;;
15899;SDS011;8048;50.644;6.184;2022-08-05T01:33:51;5.70;;;5.20;;
15899;SDS011;8048;50.644;6.184;2022-08-05T01:36:21;5.23;;;4.83;;
15899;SDS011;8048;50.644;6.184;2022-08-05T01:38:51;4.23;;;3.90;;
15899;SDS011;8048;50.644;6.184;2022-08-05T01:41:19;4.50;;;4.20;;
15899;SDS011;8048;50.644;6.184;2022-08-05T01:43:46;5.53;;;4.90;;
15899;SDS011;8048;50.644;6.184;2022-08-05T01:46:13;6.53;;;5.63;;
15899;SDS011;8048;50.644;6.184;2022-08-05T01:48:40;5.50;;;5.10;;
15899;SDS011;8048;50.644;6.184;2022-08-05T01:51:08;5.77;;;5.37;;
15899;SDS011;8048;50.644;6.184;2022-08-05T01:53:34;6.00;;;5.50;;
15899;SDS011;8048;50.644;6.184;2022-08-05T01:56:02;7.33;;;6.70;;
15899;SDS011;8048;50.644;6.184;2022-08-05T01:58:30;6.57;;;6.03;;
15899;SDS011;8048;50.644;6.184;2022-08-05T02:00:57;6.10;;;5.70;;
15899;SDS011;8048;50.644;6.184;2022-08-05T02:03:28;6.40;;;5.80;;
15899;SDS011;8048;50.644;6.184;2022-08-05T02:06:01;5.93;;;5.43;;
15899;SDS011;8048;50.644;6.184;2022-08-05T02:08:29;6.07;;;5.57;;
15899;SDS011;8048;50.644;6.184;2022-08-05T02:10:58;7.60;;;6.20;;
15899;SDS011;8048;50.644;6.184;2022-08-05T02:13:48;5.23;;;4.50;;
15899;SDS011;8048;50.644;6.184;2022-08-05T02:18:47;6.77;;;6.27;;
15899;SDS011;8048;50.644;6.184;2022-08-05T02:21:18;7.87;;;6.90;;
15899;SDS011;8048;50.644;6.184;2022-08-05T02:23:51;7.17;;;6.67;;
15899;SDS011;8048;50.644;6.184;2022-08-05T02:26:21;9.43;;;8.53;;
15899;SDS011;8048;50.644;6.184;2022-08-05T02:28:51;6.33;;;5.77;;
15899;SDS011;8048;50.644;6.184;2022-08-05T02:31:26;7.23;;;5.90;;
15899;SDS011;8048;50.644;6.184;2022-08-05T02:33:58;6.60;;;6.03;;
15899;SDS011;8048;50.644;6.184;2022-08-05T02:36:27;7.80;;;6.93;;
15899;SDS011;8048;50.644;6.184;2022-08-05T02:38:55;6.47;;;5.97;;
15899;SDS011;8048;50.644;6.184;2022-08-05T02:41:22;6.23;;;5.73;;
15899;SDS011;8048;50.644;6.184;2022-08-05T02:43:49;6.43;;;5.60;;
15899;SDS011;8048;50.644;6.184;2022-08-05T02:46:16;7.73;;;7.03;;
15899;SDS011;8048;50.644;6.184;2022-08-05T02:48:44;6.67;;;6.07;;
15899;SDS011;8048;50.644;6.184;2022-08-05T02:51:11;6.70;;;6.10;;
15899;SDS011;8048;50.644;6.184;2022-08-05T02:53:39;7.67;;;6.97;;
15899;SDS011;8048;50.644;6.184;2022-08-05T02:56:09;6.10;;;5.60;;
15899;SDS011;8048;50.644;6.184;2022-08-05T02:58:37;6.13;;;5.67;;
15899;SDS011;8048;50.644;6.184;2022-08-05T03:01:05;6.73;;;6.23;;
15899;SDS011;8048;50.644;6.184;2022-08-05T03:03:33;6.33;;;5.83;;
15899;SDS011;8048;50.644;6.184;2022-08-05T03:06:07;7.20;;;6.50;;
15899;SDS011;8048;50.644;6.184;2022-08-05T03:08:37;6.77;;;6.27;;
15899;SDS011;8048;50.644;6.184;2022-08-05T03:11:03;6.50;;;5.90;;
15899;SDS011;8048;50.644;6.184;2022-08-05T03:13:39;5.43;;;5.03;;
15899;SDS011;8048;50.644;6.184;2022-08-05T03:16:05;5.30;;;5.00;;
15899;SDS011;8048;50.644;6.184;2022-08-05T03:18:31;6.73;;;5.57;;
15899;SDS011;8048;50.644;6.184;2022-08-05T03:20:56;5.90;;;5.50;;
15899;SDS011;8048;50.644;6.184;2022-08-05T03:23:22;6.17;;;5.77;;
15899;SDS011;8048;50.644;6.184;2022-08-05T03:25:47;6.80;;;6.30;;
15899;SDS011;8048;50.644;6.184;2022-08-05T03:28:13;5.80;;;5.40;;
15899;SDS011;8048;50.644;6.184;2022-08-05T03:30:40;5.07;;;4.77;;
15899;SDS011;8048;50.644;6.184;2022-08-05T03:33:06;5.83;;;5.20;;
15899;SDS011;8048;50.644;6.184;2022-08-05T03:35:32;6.60;;;5.97;;
15899;SDS011;8048;50.644;6.184;2022-08-05T03:37:59;5.43;;;5.00;;
15899;SDS011;8048;50.644;6.184;2022-08-05T03:40:25;5.00;;;4.60;;
15899;SDS011;8048;50.644;6.184;2022-08-05T03:42:51;6.13;;;5.73;;
15899;SDS011;8048;50.644;6.184;2022-08-05T03:45:17;6.10;;;5.60;;
15899;SDS011;8048;50.644;6.184;2022-08-05T03:47:42;6.93;;;6.40;;
15899;SDS011;8048;50.644;6.184;2022-08-05T03:50:08;8.90;;;8.07;;
15899;SDS011;8048;50.644;6.184;2022-08-05T03:52:39;8.63;;;7.83;;
15899;SDS011;8048;50.644;6.184;2022-08-05T03:55:24;8.03;;;7.33;;
15899;SDS011;8048;50.644;6.184;2022-08-05T03:57:52;7.13;;;6.53;;
15899;SDS011;8048;50.644;6.184;2022-08-05T04:00:20;6.73;;;6.13;;
15899;SDS011;8048;50.644;6.184;2022-08-05T04:02:50;7.27;;;6.60;;
15899;SDS011;8048;50.644;6.184;2022-08-05T04:05:18;7.33;;;6.67;;
15899;SDS011;8048;50.644;6.184;2022-08-05T04:07:44;6.23;;;5.73;;
15899;SDS011;8048;50.644;6.184;2022-08-05T04:10:11;6.80;;;6.40;;
15899;SDS011;8048;50.644;6.184;2022-08-05T04:12:36;7.60;;;7.00;;
15899;SDS011;8048;50.644;6.184;2022-08-05T04:15:02;7.00;;;6.40;;
15899;SDS011;8048;50.644;6.184;2022-08-05T04:17:29;6.50;;;6.00;;
15899;SDS011;8048;50.644;6.184;2022-08-05T04:19:54;7.00;;;6.37;;
15899;SDS011;8048;50.644;6.184;2022-08-05T04:22:20;6.97;;;6.40;;
15899;SDS011;8048;50.644;6.184;2022-08-05T04:24:45;6.70;;;6.10;;
15899;SDS011;8048;50.644;6.184;2022-08-05T04:27:12;7.60;;;7.07;;
15899;SDS011;8048;50.644;6.184;2022-08-05T04:29:38;7.37;;;6.77;;
15899;SDS011;8048;50.644;6.184;2022-08-05T04:32:04;6.60;;;6.10;;
15899;SDS011;8048;50.644;6.184;2022-08-05T04:34:30;6.47;;;5.97;;
15899;SDS011;8048;50.644;6.184;2022-08-05T04:36:56;6.60;;;6.13;;
15899;SDS011;8048;50.644;6.184;2022-08-05T04:39:21;6.20;;;5.70;;
15899;SDS011;8048;50.644;6.184;2022-08-05T04:41:47;8.00;;;7.30;;
15899;SDS011;8048;50.644;6.184;2022-08-05T04:44:13;8.90;;;8.10;;
15899;SDS011;8048;50.644;6.184;2022-08-05T04:46:39;8.50;;;7.80;;
15899;SDS011;8048;50.644;6.184;2022-08-05T04:49:05;9.53;;;8.63;;
15899;SDS011;8048;50.644;6.184;2022-08-05T04:51:31;7.70;;;7.00;;
15899;SDS011;8048;50.644;6.184;2022-08-05T04:54:00;8.57;;;7.77;;
15899;SDS011;8048;50.644;6.184;2022-08-05T04:56:26;7.57;;;6.87;;
15899;SDS011;8048;50.644;6.184;2022-08-05T04:58:51;10.90;;;9.90;;
15899;SDS011;8048;50.644;6.184;2022-08-05T05:01:17;8.93;;;8.13;;
15899;SDS011;8048;50.644;6.184;2022-08-05T05:03:42;9.07;;;8.17;;
15899;SDS011;8048;50.644;6.184;2022-08-05T05:06:08;9.17;;;8.37;;
15899;SDS011;8048;50.644;6.184;2022-08-05T05:08:35;8.60;;;7.80;;
15899;SDS011;8048;50.644;6.184;2022-08-05T05:11:01;7.13;;;6.53;;
15899;SDS011;8048;50.644;6.184;2022-08-05T05:13:27;8.83;;;8.07;;
15899;SDS011;8048;50.644;6.184;2022-08-05T05:15:52;9.53;;;8.53;;
15899;SDS011;8048;50.644;6.184;2022-08-05T05:18:18;9.07;;;8.17;;
15899;SDS011;8048;50.644;6.184;2022-08-05T05:20:45;7.80;;;7.20;;
15899;SDS011;8048;50.644;6.184;2022-08-05T05:23:11;8.97;;;8.13;;
15899;SDS011;8048;50.644;6.184;2022-08-05T05:25:39;8.30;;;7.33;;
15899;SDS011;8048;50.644;6.184;2022-08-05T05:28:05;9.60;;;8.70;;
15899;SDS011;8048;50.644;6.184;2022-08-05T05:30:31;8.97;;;8.13;;
15899;SDS011;8048;50.644;6.184;2022-08-05T05:32:57;8.00;;;7.30;;
15899;SDS011;8048;50.644;6.184;2022-08-05T05:35:23;10.57;;;9.67;;
15899;SDS011;8048;50.644;6.184;2022-08-05T05:37:53;9.67;;;8.77;;
15899;SDS011;8048;50.644;6.184;2022-08-05T05:40:22;9.87;;;8.90;;
15899;SDS011;8048;50.644;6.184;2022-08-05T05:42:49;9.67;;;8.77;;
15899;SDS011;8048;50.644;6.184;2022-08-05T05:45:15;9.80;;;9.00;;
15899;SDS011;8048;50.644;6.184;2022-08-05T05:47:41;10.23;;;9.30;;
15899;SDS011;8048;50.644;6.184;2022-08-05T05:50:08;10.80;;;9.70;;
15899;SDS011;8048;50.644;6.184;2022-08-05T05:52:35;9.90;;;8.90;;
15899;SDS011;8048;50.644;6.184;2022-08-05T05:55:05;11.07;;;8.50;;
15899;SDS011;8048;50.644;6.184;2022-08-05T05:57:35;9.67;;;8.70;;
15899;SDS011;8048;50.644;6.184;2022-08-05T06:00:04;11.03;;;9.93;;
15899;SDS011;8048;50.644;6.184;2022-08-05T06:02:32;12.20;;;11.00;;
15899;SDS011;8048;50.644;6.184;2022-08-05T06:04:58;12.33;;;11.03;;
15899;SDS011;8048;50.644;6.184;2022-08-05T06:07:23;11.10;;;10.00;;
15899;SDS011;8048;50.644;6.184;2022-08-05T06:09:49;11.37;;;10.20;;
15899;SDS011;8048;50.644;6.184;2022-08-05T06:12:14;12.27;;;10.80;;
15899;SDS011;8048;50.644;6.184;2022-08-05T06:14:40;11.67;;;10.60;;
15899;SDS011;8048;50.644;6.184;2022-08-05T06:17:08;11.37;;;10.07;;
15899;SDS011;8048;50.644;6.184;2022-08-05T06:19:35;12.43;;;10.00;;
15899;SDS011;8048;50.644;6.184;2022-08-05T06:22:04;12.47;;;11.27;;
15899;SDS011;8048;50.644;6.184;2022-08-05T06:24:31;12.30;;;11.00;;
15899;SDS011;8048;50.644;6.184;2022-08-05T06:26:57;10.23;;;9.33;;
15899;SDS011;8048;50.644;6.184;2022-08-05T06:29:22;12.07;;;10.80;;
15899;SDS011;8048;50.644;6.184;2022-08-05T06:31:48;11.90;;;10.80;;
15899;SDS011;8048;50.644;6.184;2022-08-05T06:34:13;12.53;;;11.23;;
15899;SDS011;8048;50.644;6.184;2022-08-05T06:36:39;13.73;;;11.47;;
15899;SDS011;8048;50.644;6.184;2022-08-05T06:39:04;12.00;;;10.90;;
15899;SDS011;8048;50.644;6.184;2022-08-05T06:41:30;14.73;;;12.03;;
15899;SDS011;8048;50.644;6.184;2022-08-05T06:43:55;12.63;;;11.17;;
15899;SDS011;8048;50.644;6.184;2022-08-05T06:46:21;14.03;;;12.03;;
15899;SDS011;8048;50.644;6.184;2022-08-05T06:48:47;14.60;;;10.90;;
15899;SDS011;8048;50.644;6.184;2022-08-05T06:51:12;14.97;;;11.70;;
15899;SDS011;8048;50.644;6.184;2022-08-05T06:53:38;13.30;;;12.00;;
15899;SDS011;8048;50.644;6.184;2022-08-05T06:56:04;12.97;;;11.60;;
15899;SDS011;8048;50.644;6.184;2022-08-05T06:58:29;12.37;;;11.17;;
15899;SDS011;8048;50.644;6.184;2022-08-05T07:00:59;14.23;;;12.70;;
15899;SDS011;8048;50.644;6.184;2022-08-05T07:03:26;11.73;;;10.10;;
15899;SDS011;8048;50.644;6.184;2022-08-05T07:05:53;12.00;;;10.13;;
15899;SDS011;8048;50.644;6.184;2022-08-05T07:08:18;13.50;;;11.00;;
15899;SDS011;8048;50.644;6.184;2022-08-05T07:10:46;11.23;;;10.03;;
15899;SDS011;8048;50.644;6.184;2022-08-05T07:13:12;11.93;;;10.80;;
15899;SDS011;8048;50.644;6.184;2022-08-05T07:15:56;12.27;;;10.70;;
15899;SDS011;8048;50.644;6.184;2022-08-05T07:18:40;14.00;;;11.03;;
15899;SDS011;8048;50.644;6.184;2022-08-05T07:21:06;12.00;;;10.80;;
15899;SDS011;8048;50.644;6.184;2022-08-05T07:23:31;13.80;;;10.57;;
15899;SDS011;8048;50.644;6.184;2022-08-05T07:25:57;12.20;;;11.00;;
15899;SDS011;8048;50.644;6.184;2022-08-05T07:28:23;9.47;;;8.57;;
15899;SDS011;8048;50.644;6.184;2022-08-05T07:30:49;11.13;;;9.27;;
15899;SDS011;8048;50.644;6.184;2022-08-05T07:33:14;12.80;;;10.87;;
15899;SDS011;8048;50.644;6.184;2022-08-05T07:35:40;12.17;;;10.80;;
15899;SDS011;8048;50.644;6.184;2022-08-05T07:38:05;13.73;;;10.53;;
15899;SDS011;8048;50.644;6.184;2022-08-05T07:40:31;12.97;;;10.43;;
15899;SDS011;8048;50.644;6.184;2022-08-05T07:42:57;11.93;;;10.47;;
15899;SDS011;8048;50.644;6.184;2022-08-05T07:45:22;12.57;;;10.57;;
15899;SDS011;8048;50.644;6.184;2022-08-05T07:47:48;8.90;;;7.97;;
15899;SDS011;8048;50.644;6.184;2022-08-05T07:50:14;8.23;;;7.40;;
15899;SDS011;8048;50.644;6.184;2022-08-05T07:52:40;8.87;;;7.97;;
15899;SDS011;8048;50.644;6.184;2022-08-05T07:55:07;8.83;;;7.77;;
15899;SDS011;8048;50.644;6.184;2022-08-05T07:57:34;6.47;;;5.87;;
15899;SDS011;8048;50.644;6.184;2022-08-05T08:00:00;6.97;;;5.43;;
15899;SDS011;8048;50.644;6.184;2022-08-05T08:02:27;6.20;;;5.50;;
15899;SDS011;8048;50.644;6.184;2022-08-05T08:04:53;5.63;;;5.13;;
15899;SDS011;8048;50.644;6.184;2022-08-05T08:07:20;6.50;;;5.70;;
15899;SDS011;8048;50.644;6.184;2022-08-05T08:09:46;5.17;;;4.67;;
15899;SDS011;8048;50.644;6.184;2022-08-05T08:12:12;5.73;;;4.47;;
15899;SDS011;8048;50.644;6.184;2022-08-05T08:14:38;4.13;;;3.93;;
15899;SDS011;8048;50.644;6.184;2022-08-05T08:17:05;4.20;;;3.90;;
15899;SDS011;8048;50.644;6.184;2022-08-05T08:19:43;4.37;;;4.00;;
15899;SDS011;8048;50.644;6.184;2022-08-05T08:22:09;3.70;;;3.40;;
15899;SDS011;8048;50.644;6.184;2022-08-05T08:24:35;4.07;;;3.67;;
15899;SDS011;8048;50.644;6.184;2022-08-05T08:27:02;3.03;;;2.83;;
15899;SDS011;8048;50.644;6.184;2022-08-05T08:29:28;3.63;;;3.33;;
15899;SDS011;8048;50.644;6.184;2022-08-05T08:31:54;3.10;;;2.90;;
15899;SDS011;8048;50.644;6.184;2022-08-05T08:34:21;3.20;;;3.00;;
15899;SDS011;8048;50.644;6.184;2022-08-05T08:36:48;3.40;;;3.20;;
15899;SDS011;8048;50.644;6.184;2022-08-05T08:39:14;4.37;;;4.03;;
15899;SDS011;8048;50.644;6.184;2022-08-05T08:41:43;4.33;;;4.03;;
15899;SDS011;8048;50.644;6.184;2022-08-05T08:44:11;4.70;;;4.30;;
15899;SDS011;8048;50.644;6.184;2022-08-05T08:46:42;5.33;;;4.93;;
15899;SDS011;8048;50.644;6.184;2022-08-05T08:49:09;6.23;;;5.33;;
15899;SDS011;8048;50.644;6.184;2022-08-05T08:51:39;4.00;;;3.70;;
15899;SDS011;8048;50.644;6.184;2022-08-05T08:54:06;4.37;;;3.97;;
15899;SDS011;8048;50.644;6.184;2022-08-05T08:56:34;4.67;;;4.27;;
15899;SDS011;8048;50.644;6.184;2022-08-05T08:59:01;4.70;;;4.27;;
15899;SDS011;8048;50.644;6.184;2022-08-05T09:01:27;4.70;;;4.30;;
15899;SDS011;8048;50.644;6.184;2022-08-05T09:03:53;3.40;;;3.20;;
15899;SDS011;8048;50.644;6.184;2022-08-05T09:06:20;3.47;;;3.27;;
15899;SDS011;8048;50.644;6.184;2022-08-05T09:08:46;2.70;;;2.50;;
15899;SDS011;8048;50.644;6.184;2022-08-05T09:11:12;3.27;;;3.07;;
15899;SDS011;8048;50.644;6.184;2022-08-05T09:13:39;4.00;;;3.70;;
15899;SDS011;8048;50.644;6.184;2022-08-05T09:16:05;3.70;;;3.50;;
15899;SDS011;8048;50.644;6.184;2022-08-05T09:18:34;3.83;;;3.60;;
15899;SDS011;8048;50.644;6.184;2022-08-05T09:21:00;3.50;;;3.30;;
15899;SDS011;8048;50.644;6.184;2022-08-05T09:23:26;3.70;;;3.50;;
15899;SDS011;8048;50.644;6.184;2022-08-05T09:26:04;3.80;;;3.60;;
15899;SDS011;8048;50.644;6.184;2022-08-05T09:28:34;3.87;;;3.50;;
15899;SDS011;8048;50.644;6.184;2022-08-05T09:36:16;2.97;;;2.77;;
15899;SDS011;8048;50.644;6.184;2022-08-05T09:38:59;2.90;;;2.80;;
15899;SDS011;8048;50.644;6.184;2022-08-05T09:41:26;2.57;;;2.47;;
15899;SDS011;8048;50.644;6.184;2022-08-05T09:43:52;2.73;;;2.63;;
15899;SDS011;8048;50.644;6.184;2022-08-05T09:46:28;2.43;;;2.30;;
15899;SDS011;8048;50.644;6.184;2022-08-05T09:48:56;2.60;;;2.50;;
15899;SDS011;8048;50.644;6.184;2022-08-05T09:51:30;2.53;;;2.43;;
15899;SDS011;8048;50.644;6.184;2022-08-05T09:54:00;2.67;;;2.47;;
15899;SDS011;8048;50.644;6.184;2022-08-05T09:56:29;2.23;;;2.13;;
15899;SDS011;8048;50.644;6.184;2022-08-05T09:59:00;2.20;;;2.10;;
15899;SDS011;8048;50.644;6.184;2022-08-05T10:01:27;3.63;;;3.17;;
15899;SDS011;8048;50.644;6.184;2022-08-05T10:03:54;3.37;;;3.13;;
15899;SDS011;8048;50.644;6.184;2022-08-05T10:06:21;3.20;;;3.00;;
15899;SDS011;8048;50.644;6.184;2022-08-05T10:08:46;3.43;;;3.23;;
15899;SDS011;8048;50.644;6.184;2022-08-05T10:11:13;2.33;;;2.13;;
15899;SDS011;8048;50.644;6.184;2022-08-05T10:13:40;4.13;;;2.90;;
15899;SDS011;8048;50.644;6.184;2022-08-05T10:16:07;2.90;;;2.60;;
15899;SDS011;8048;50.644;6.184;2022-08-05T10:18:56;5.70;;;2.37;;
15899;SDS011;8048;50.644;6.184;2022-08-05T10:21:23;2.67;;;2.33;;
15899;SDS011;8048;50.644;6.184;2022-08-05T10:23:48;3.53;;;2.97;;
15899;SDS011;8048;50.644;6.184;2022-08-05T10:26:14;2.80;;;2.70;;
15899;SDS011;8048;50.644;6.184;2022-08-05T10:28:40;2.60;;;2.50;;
15899;SDS011;8048;50.644;6.184;2022-08-05T10:31:07;2.60;;;2.40;;
15899;SDS011;8048;50.644;6.184;2022-08-05T10:33:37;4.10;;;2.87;;
15899;SDS011;8048;50.644;6.184;2022-08-05T10:36:03;3.30;;;3.10;;
15899;SDS011;8048;50.644;6.184;2022-08-05T10:38:30;3.60;;;3.10;;
15899;SDS011;8048;50.644;6.184;2022-08-05T10:40:59;3.83;;;3.27;;
15899;SDS011;8048;50.644;6.184;2022-08-05T10:43:57;3.80;;;3.47;;
15899;SDS011;8048;50.644;6.184;2022-08-05T10:49:13;3.70;;;3.40;;
15899;SDS011;8048;50.644;6.184;2022-08-05T10:51:49;4.63;;;4.33;;
15899;SDS011;8048;50.644;6.184;2022-08-05T10:54:44;6.00;;;5.50;;
15899;SDS011;8048;50.644;6.184;2022-08-05T10:57:11;5.93;;;4.63;;
15899;SDS011;8048;50.644;6.184;2022-08-05T10:59:49;5.23;;;4.87;;
15899;SDS011;8048;50.644;6.184;2022-08-05T11:05:23;5.10;;;4.70;;
15899;SDS011;8048;50.644;6.184;2022-08-05T11:07:58;7.07;;;6.37;;
15899;SDS011;8048;50.644;6.184;2022-08-05T11:10:26;6.03;;;5.63;;
15899;SDS011;8048;50.644;6.184;2022-08-05T11:12:52;7.67;;;7.07;;
15899;SDS011;8048;50.644;6.184;2022-08-05T11:15:55;7.90;;;7.20;;
15899;SDS011;8048;50.644;6.184;2022-08-05T11:20:41;9.97;;;7.10;;
15899;SDS011;8048;50.644;6.184;2022-08-05T11:23:27;8.53;;;7.70;;
15899;SDS011;8048;50.644;6.184;2022-08-05T11:28:54;7.93;;;7.23;;
15899;SDS011;8048;50.644;6.184;2022-08-05T11:31:21;8.13;;;6.53;;
15899;SDS011;8048;50.644;6.184;2022-08-05T11:33:53;6.50;;;6.00;;
15899;SDS011;8048;50.644;6.184;2022-08-05T11:36:21;7.30;;;6.50;;
15899;SDS011;8048;50.644;6.184;2022-08-05T11:39:08;6.87;;;6.40;;
15899;SDS011;8048;50.644;6.184;2022-08-05T11:41:36;7.57;;;7.07;;
15899;SDS011;8048;50.644;6.184;2022-08-05T11:49:12;7.87;;;7.00;;
15899;SDS011;8048;50.644;6.184;2022-08-05T11:51:42;6.77;;;6.30;;
15899;SDS011;8048;50.644;6.184;2022-08-05T11:54:13;7.00;;;6.40;;
15899;SDS011;8048;50.644;6.184;2022-08-05T11:56:52;7.33;;;6.83;;
15899;SDS011;8048;50.644;6.184;2022-08-05T11:59:19;6.87;;;6.30;;
15899;SDS011;8048;50.644;6.184;2022-08-05T12:04:20;6.13;;;5.57;;
15899;SDS011;8048;50.644;6.184;2022-08-05T12:06:46;6.63;;;6.03;;
15899;SDS011;8048;50.644;6.184;2022-08-05T12:09:12;7.50;;;6.30;;
15899;SDS011;8048;50.644;6.184;2022-08-05T12:11:45;6.70;;;6.07;;
15899;SDS011;8048;50.644;6.184;2022-08-05T12:14:11;6.60;;;6.10;;
15899;SDS011;8048;50.644;6.184;2022-08-05T12:16:38;7.00;;;6.20;;
15899;SDS011;8048;50.644;6.184;2022-08-05T12:19:06;5.90;;;5.50;;
15899;SDS011;8048;50.644;6.184;2022-08-05T12:21:43;7.70;;;7.20;;
15899;SDS011;8048;50.644;6.184;2022-08-05T12:24:15;6.70;;;6.10;;
15899;SDS011;8048;50.644;6.184;2022-08-05T12:26:45;6.80;;;6.20;;
15899;SDS011;8048;50.644;6.184;2022-08-05T12:31:50;5.70;;;5.40;;
15899;SDS011;8048;50.644;6.184;2022-08-05T12:34:24;5.53;;;5.13;;
15899;SDS011;8048;50.644;6.184;2022-08-05T12:36:55;7.33;;;6.70;;
15899;SDS011;8048;50.644;6.184;2022-08-05T12:39:22;5.60;;;5.20;;
15899;SDS011;8048;50.644;6.184;2022-08-05T12:41:49;7.43;;;6.93;;
15899;SDS011;8048;50.644;6.184;2022-08-05T12:44:16;6.47;;;5.97;;
15899;SDS011;8048;50.644;6.184;2022-08-05T12:46:50;7.17;;;6.53;;
15899;SDS011;8048;50.644;6.184;2022-08-05T12:49:17;6.50;;;5.90;;
15899;SDS011;8048;50.644;6.184;2022-08-05T12:51:55;5.77;;;5.20;;
15899;SDS011;8048;50.644;6.184;2022-08-05T12:54:27;6.27;;;5.70;;
15899;SDS011;8048;50.644;6.184;2022-08-05T12:56:56;6.10;;;5.60;;
15899;SDS011;8048;50.644;6.184;2022-08-05T12:59:25;5.53;;;5.03;;
15899;SDS011;8048;50.644;6.184;2022-08-05T13:02:14;6.33;;;5.73;;
15899;SDS011;8048;50.644;6.184;2022-08-05T13:04:41;6.40;;;5.77;;
15899;SDS011;8048;50.644;6.184;2022-08-05T13:07:08;6.27;;;5.83;;
15899;SDS011;8048;50.644;6.184;2022-08-05T13:09:37;6.53;;;5.93;;
15899;SDS011;8048;50.644;6.184;2022-08-05T13:14:35;6.40;;;5.90;;
15899;SDS011;8048;50.644;6.184;2022-08-05T13:19:40;6.30;;;5.80;;
15899;SDS011;8048;50.644;6.184;2022-08-05T13:22:06;5.23;;;4.83;;
15899;SDS011;8048;50.644;6.184;2022-08-05T13:24:32;5.67;;;5.17;;
15899;SDS011;8048;50.644;6.184;2022-08-05T13:26:58;7.57;;;6.30;;
15899;SDS011;8048;50.644;6.184;2022-08-05T13:29:24;5.73;;;5.33;;
15899;SDS011;8048;50.644;6.184;2022-08-05T13:31:49;6.33;;;5.90;;
15899;SDS011;8048;50.644;6.184;2022-08-05T13:34:15;6.10;;;5.20;;
15899;SDS011;8048;50.644;6.184;2022-08-05T13:36:41;6.07;;;5.50;;
15899;SDS011;8048;50.644;6.184;2022-08-05T13:39:08;5.53;;;5.23;;
15899;SDS011;8048;50.644;6.184;2022-08-05T13:41:34;6.60;;;5.90;;
15899;SDS011;8048;50.644;6.184;2022-08-05T13:44:00;6.43;;;6.00;;
15899;SDS011;8048;50.644;6.184;2022-08-05T13:46:26;6.57;;;6.17;;
15899;SDS011;8048;50.644;6.184;2022-08-05T13:48:52;6.80;;;6.10;;
15899;SDS011;8048;50.644;6.184;2022-08-05T13:51:24;5.87;;;5.47;;
15899;SDS011;8048;50.644;6.184;2022-08-05T13:53:52;6.17;;;5.57;;
15899;SDS011;8048;50.644;6.184;2022-08-05T13:56:17;5.93;;;5.33;;
15899;SDS011;8048;50.644;6.184;2022-08-05T13:58:43;4.90;;;4.50;;
15899;SDS011;8048;50.644;6.184;2022-08-05T14:01:08;5.93;;;5.40;;
15899;SDS011;8048;50.644;6.184;2022-08-05T14:03:34;7.00;;;5.87;;
15899;SDS011;8048;50.644;6.184;2022-08-05T14:05:59;6.10;;;5.60;;
15899;SDS011;8048;50.644;6.184;2022-08-05T14:08:25;5.00;;;4.60;;
15899;SDS011;8048;50.644;6.184;2022-08-05T14:10:50;7.43;;;5.83;;
15899;SDS011;8048;50.644;6.184;2022-08-05T14:13:16;5.43;;;4.93;;
15899;SDS011;8048;50.644;6.184;2022-08-05T14:15:42;5.63;;;4.80;;
15899;SDS011;8048;50.644;6.184;2022-08-05T14:18:07;6.67;;;6.07;;
15899;SDS011;8048;50.644;6.184;2022-08-05T14:20:33;5.20;;;4.80;;
15899;SDS011;8048;50.644;6.184;2022-08-05T14:22:59;4.50;;;4.20;;
15899;SDS011;8048;50.644;6.184;2022-08-05T14:25:25;4.50;;;4.20;;
15899;SDS011;8048;50.644;6.184;2022-08-05T14:27:51;3.90;;;3.70;;
15899;SDS011;8048;50.644;6.184;2022-08-05T14:30:17;4.57;;;4.20;;
15899;SDS011;8048;50.644;6.184;2022-08-05T14:32:43;3.97;;;3.77;;
15899;SDS011;8048;50.644;6.184;2022-08-05T14:35:09;4.20;;;3.90;;
15899;SDS011;8048;50.644;6.184;2022-08-05T14:37:36;4.50;;;3.90;;
15899;SDS011;8048;50.644;6.184;2022-08-05T14:40:02;3.83;;;3.63;;
15899;SDS011;8048;50.644;6.184;2022-08-05T14:42:28;3.70;;;3.40;;
15899;SDS011;8048;50.644;6.184;2022-08-05T14:44:54;4.20;;;3.87;;
15899;SDS011;8048;50.644;6.184;2022-08-05T14:47:19;4.00;;;3.63;;
15899;SDS011;8048;50.644;6.184;2022-08-05T14:49:45;3.80;;;3.57;;
15899;SDS011;8048;50.644;6.184;2022-08-05T14:52:11;3.83;;;3.53;;
15899;SDS011;8048;50.644;6.184;2022-08-05T14:54:36;4.20;;;3.80;;
15899;SDS011;8048;50.644;6.184;2022-08-05T14:57:02;4.00;;;3.60;;
15899;SDS011;8048;50.644;6.184;2022-08-05T14:59:28;4.07;;;3.80;;
15899;SDS011;8048;50.644;6.184;2022-08-05T15:01:54;4.70;;;3.20;;
15899;SDS011;8048;50.644;6.184;2022-08-05T15:04:20;3.70;;;3.50;;
15899;SDS011;8048;50.644;6.184;2022-08-05T15:06:46;3.77;;;3.47;;
15899;SDS011;8048;50.644;6.184;2022-08-05T15:09:12;3.87;;;3.53;;
15899;SDS011;8048;50.644;6.184;2022-08-05T15:11:38;3.60;;;3.40;;
15899;SDS011;8048;50.644;6.184;2022-08-05T15:14:03;4.27;;;3.97;;
15899;SDS011;8048;50.644;6.184;2022-08-05T15:16:29;3.67;;;3.37;;
15899;SDS011;8048;50.644;6.184;2022-08-05T15:18:55;4.57;;;4.17;;
15899;SDS011;8048;50.644;6.184;2022-08-05T15:21:21;3.30;;;3.10;;
15899;SDS011;8048;50.644;6.184;2022-08-05T15:23:46;4.20;;;3.90;;
15899;SDS011;8048;50.644;6.184;2022-08-05T15:26:12;9.97;;;3.80;;
15899;SDS011;8048;50.644;6.184;2022-08-05T15:28:41;3.53;;;3.33;;
15899;SDS011;8048;50.644;6.184;2022-08-05T15:31:07;4.20;;;3.80;;
15899;SDS011;8048;50.644;6.184;2022-08-05T15:33:32;4.30;;;3.97;;
15899;SDS011;8048;50.644;6.184;2022-08-05T15:35:58;4.37;;;3.60;;
15899;SDS011;8048;50.644;6.184;2022-08-05T15:38:23;4.87;;;3.60;;
15899;SDS011;8048;50.644;6.184;2022-08-05T15:40:49;4.40;;;4.00;;
15899;SDS011;8048;50.644;6.184;2022-08-05T15:43:15;4.20;;;3.90;;
15899;SDS011;8048;50.644;6.184;2022-08-05T15:45:43;5.20;;;4.70;;
15899;SDS011;8048;50.644;6.184;2022-08-05T15:48:09;4.30;;;3.90;;